createdAt,value
2019-05-07T00:01:23.080Z,33.60
2019-05-07T00:03:56.236Z,33.59
2019-05-07T00:06:32.477Z,33.54
2019-05-07T00:09:07.580Z,33.50
2019-05-07T00:11:42.573Z,33.49
2019-05-07T00:14:16.449Z,33.45
2019-05-07T00:16:50.236Z,33.46
2019-05-07T00:19:23.941Z,33.46
2019-05-07T00:21:57.771Z,33.41
2019-05-07T00:24:33.126Z,33.42
2019-05-07T00:27:07.232Z,33.37
2019-05-07T00:29:42.910Z,33.36
2019-05-07T00:32:16.850Z,33.30
2019-05-07T00:34:54.457Z,33.27
2019-05-07T00:37:34.930Z,33.26
2019-05-07T00:40:25.289Z,33.22
2019-05-07T00:43:24.206Z,33.17
2019-05-07T00:46:05.668Z,33.13
2019-05-07T00:48:39.434Z,33.06
2019-05-07T00:51:30.584Z,33.07
2019-05-07T00:54:05.290Z,33.05
2019-05-07T00:56:39.008Z,33.01
2019-05-07T00:59:13.164Z,32.98
2019-05-07T01:01:47.052Z,32.92
2019-05-07T01:04:22.854Z,32.89
2019-05-07T01:06:56.228Z,32.85
2019-05-07T01:09:32.236Z,32.82
2019-05-07T01:12:05.700Z,32.81
2019-05-07T01:14:39.444Z,32.81
2019-05-07T01:17:13.300Z,32.74
2019-05-07T01:19:47.084Z,32.73
2019-05-07T01:22:22.196Z,32.73
2019-05-07T01:24:56.820Z,32.71
2019-05-07T01:27:32.143Z,32.69
2019-05-07T01:30:06.153Z,32.67
2019-05-07T01:32:54.442Z,32.64
2019-05-07T01:35:46.895Z,32.63
2019-05-07T01:38:22.870Z,32.60
2019-05-07T01:40:57.387Z,32.59
2019-05-07T01:43:32.133Z,32.57
2019-05-07T01:46:07.101Z,32.57
2019-05-07T01:48:42.869Z,32.55
2019-05-07T01:51:16.266Z,32.57
2019-05-07T01:53:49.952Z,32.53
2019-05-07T01:56:23.870Z,32.52
2019-05-07T01:58:57.596Z,32.50
2019-05-07T02:01:33.178Z,32.47
2019-05-07T02:04:16.883Z,32.44
2019-05-07T02:07:09.262Z,32.46
2019-05-07T02:09:57.455Z,32.46
2019-05-07T02:12:35.601Z,32.42
2019-05-07T02:15:11.840Z,32.39
2019-05-07T02:17:45.361Z,32.36
2019-05-07T02:20:19.147Z,32.34
2019-05-07T02:22:53.316Z,32.34
2019-05-07T02:25:27.185Z,32.38
2019-05-07T02:28:02.160Z,32.39
2019-05-07T02:30:36.299Z,32.35
2019-05-07T02:33:10.003Z,32.35
2019-05-07T02:35:44.128Z,32.33
2019-05-07T02:38:39.869Z,32.29
2019-05-07T02:41:29.508Z,32.29
2019-05-07T02:44:04.196Z,32.26
2019-05-07T02:47:06.231Z,32.21
2019-05-07T02:49:53.881Z,32.17
2019-05-07T02:52:45.345Z,32.10
2019-05-07T02:55:25.576Z,32.11
2019-05-07T02:57:59.303Z,32.12
2019-05-07T03:00:33.498Z,32.13
2019-05-07T03:03:08.668Z,32.08
2019-05-07T03:05:43.395Z,32.07
2019-05-07T03:08:17.163Z,32.04
2019-05-07T03:10:52.749Z,32.01
2019-05-07T03:13:26.423Z,32.00
2019-05-07T03:16:03.543Z,32.00
2019-05-07T03:18:35.736Z,31.97
2019-05-07T03:21:14.791Z,31.95
2019-05-07T03:23:58.310Z,32.15
2019-05-07T03:26:35.782Z,31.97
2019-05-07T03:29:13.853Z,31.94
2019-05-07T03:32:16.038Z,31.93
2019-05-07T03:35:09.606Z,31.92
2019-05-07T03:37:44.468Z,31.90
2019-05-07T03:40:18.211Z,31.91
2019-05-07T03:42:53.569Z,31.91
2019-05-07T03:45:43.308Z,31.90
2019-05-07T03:48:23.894Z,31.87
2019-05-07T03:50:57.472Z,31.86
2019-05-07T03:53:33.790Z,31.85
2019-05-07T03:56:06.523Z,31.84
2019-05-07T03:58:42.880Z,31.86
2019-05-07T04:01:15.766Z,31.89
2019-05-07T04:03:49.592Z,31.84
2019-05-07T04:06:23.569Z,31.83
2019-05-07T04:08:57.391Z,31.80
2019-05-07T04:11:33.690Z,31.81
2019-05-07T04:14:06.422Z,31.77
2019-05-07T04:16:40.140Z,31.79
2019-05-07T04:19:13.847Z,31.76
2019-05-07T04:21:47.596Z,31.76
2019-05-07T04:24:37.571Z,31.76
2019-05-07T04:27:29.029Z,31.74
2019-05-07T04:30:03.785Z,31.74
2019-05-07T04:32:43.586Z,31.75
2019-05-07T04:35:24.439Z,31.73
2019-05-07T04:38:02.002Z,31.73
2019-05-07T04:40:34.033Z,31.72
2019-05-07T04:43:07.773Z,31.80
2019-05-07T04:45:43.307Z,31.77
2019-05-07T04:48:17.332Z,31.81
2019-05-07T04:50:54.114Z,31.89
2019-05-07T04:53:28.072Z,32.19
2019-05-07T04:56:03.231Z,32.10
2019-05-07T04:58:37.289Z,32.03
2019-05-07T05:01:13.779Z,32.16
2019-05-07T05:03:47.761Z,32.32
2019-05-07T05:06:24.019Z,32.22
2019-05-07T05:08:57.039Z,32.46
2019-05-07T05:11:33.365Z,32.41
2019-05-07T05:14:08.119Z,32.31
2019-05-07T05:16:42.609Z,32.40
2019-05-07T05:19:16.541Z,32.34
2019-05-07T05:22:22.195Z,32.44
2019-05-07T05:25:27.180Z,32.91
2019-05-07T05:28:02.014Z,32.62
2019-05-07T05:30:42.679Z,32.61
2019-05-07T05:33:16.422Z,32.72
2019-05-07T05:35:52.401Z,32.80
2019-05-07T05:38:25.696Z,32.89
2019-05-07T05:40:59.508Z,32.76
2019-05-07T05:43:52.752Z,32.79
2019-05-07T05:46:27.908Z,32.73
2019-05-07T05:49:02.582Z,32.82
2019-05-07T05:51:45.643Z,33.11
2019-05-07T05:54:34.223Z,32.89
2019-05-07T05:57:32.103Z,32.91
2019-05-07T06:00:28.934Z,32.97
2019-05-07T06:03:27.760Z,32.93
2019-05-07T06:06:08.159Z,33.19
2019-05-07T06:08:52.500Z,32.90
2019-05-07T06:11:43.954Z,32.62
2019-05-07T06:14:34.732Z,32.84
2019-05-07T06:17:26.090Z,32.93
2019-05-07T06:20:15.459Z,32.94
2019-05-07T06:23:08.038Z,33.06
2019-05-07T06:25:43.138Z,32.89
2019-05-07T06:28:17.821Z,33.06
2019-05-07T06:30:52.712Z,32.97
2019-05-07T06:33:26.771Z,33.26
2019-05-07T06:36:02.676Z,32.94
2019-05-07T06:38:42.664Z,33.04
2019-05-07T06:41:41.841Z,33.26
2019-05-07T06:44:19.728Z,32.92
2019-05-07T06:46:53.366Z,32.99
2019-05-07T06:49:26.991Z,32.98
2019-05-07T06:52:02.836Z,33.16
2019-05-07T06:54:37.919Z,33.60
2019-05-07T06:57:13.006Z,33.40
2019-05-07T06:59:53.139Z,33.43
2019-05-07T07:02:52.484Z,33.32
2019-05-07T07:05:43.771Z,33.42
2019-05-07T07:08:26.254Z,33.55
2019-05-07T07:11:04.621Z,33.80
2019-05-07T07:13:39.852Z,33.81
2019-05-07T07:16:13.575Z,33.81
2019-05-07T07:18:52.252Z,33.70
2019-05-07T07:21:23.249Z,33.61
2019-05-07T07:23:57.101Z,33.58
2019-05-07T07:26:32.738Z,33.56
2019-05-07T07:29:07.347Z,33.56
2019-05-07T07:31:56.240Z,33.51
2019-05-07T07:34:33.251Z,33.50
2019-05-07T07:37:34.918Z,33.41
2019-05-07T07:40:19.690Z,33.42
2019-05-07T07:42:53.555Z,33.55
2019-05-07T07:45:27.517Z,33.54
2019-05-07T07:48:02.401Z,33.64
2019-05-07T07:50:37.840Z,33.53
2019-05-07T07:53:12.926Z,33.77
2019-05-07T07:56:05.910Z,33.99
2019-05-07T07:58:47.515Z,34.33
2019-05-07T08:01:33.020Z,34.01
2019-05-07T08:04:06.748Z,34.31
2019-05-07T08:06:41.996Z,34.35
2019-05-07T08:09:16.083Z,34.35
2019-05-07T08:11:49.887Z,34.39
2019-05-07T08:14:23.765Z,34.32
2019-05-07T08:16:57.774Z,34.21
2019-05-07T08:19:32.818Z,34.13
2019-05-07T08:22:07.301Z,34.19
2019-05-07T08:24:42.603Z,33.88
2019-05-07T08:27:16.820Z,32.30
2019-05-07T08:29:52.476Z,31.85
2019-05-07T08:32:43.783Z,32.16
2019-05-07T08:35:42.525Z,32.87
2019-05-07T08:38:16.584Z,33.17
2019-05-07T08:40:51.994Z,33.41
2019-05-07T08:43:25.681Z,33.55
2019-05-07T08:46:16.828Z,33.70
2019-05-07T08:48:52.922Z,33.80
2019-05-07T08:51:26.631Z,34.06
2019-05-07T08:54:06.410Z,33.96
2019-05-07T08:56:42.391Z,34.38
2019-05-07T08:59:15.983Z,34.23
2019-05-07T09:01:51.913Z,34.64
2019-05-07T09:04:25.452Z,34.62
2019-05-07T09:06:59.414Z,34.67
2019-05-07T09:09:33.084Z,34.75
2019-05-07T09:12:07.735Z,34.77
2019-05-07T09:14:42.526Z,34.84
2019-05-07T09:17:16.542Z,35.14
2019-05-07T09:19:53.949Z,35.19
2019-05-07T09:22:25.969Z,35.68
2019-05-07T09:24:59.956Z,32.39
2019-05-07T09:27:42.170Z,33.13
2019-05-07T09:30:37.056Z,33.53
2019-05-07T09:33:25.939Z,33.94
2019-05-07T09:36:02.205Z,34.20
2019-05-07T09:38:36.740Z,34.41
2019-05-07T09:41:12.350Z,34.42
2019-05-07T09:43:47.832Z,34.74
2019-05-07T09:46:22.767Z,34.83
2019-05-07T09:48:56.831Z,34.95
2019-05-07T09:51:32.284Z,34.98
2019-05-07T09:54:07.953Z,35.13
2019-05-07T09:56:44.720Z,34.99
2019-05-07T09:59:18.576Z,35.09
2019-05-07T10:01:52.246Z,35.38
2019-05-07T10:04:25.972Z,35.46
2019-05-07T10:06:59.652Z,35.43
2019-05-07T10:09:33.372Z,35.46
2019-05-07T10:12:25.964Z,35.85
2019-05-07T10:15:02.903Z,35.88
2019-05-07T10:17:45.063Z,36.09
2019-05-07T10:20:22.784Z,35.96
2019-05-07T10:22:56.732Z,34.63
2019-05-07T10:25:38.767Z,34.83
2019-05-07T10:28:14.010Z,34.94
2019-05-07T10:30:49.352Z,35.17
2019-05-07T10:33:23.432Z,35.36
2019-05-07T10:35:57.134Z,35.52
2019-05-07T10:38:30.856Z,35.55
2019-05-07T10:41:06.152Z,35.80
2019-05-07T10:43:40.104Z,35.81
2019-05-07T10:46:46.086Z,35.68
2019-05-07T10:49:24.004Z,35.94
2019-05-07T10:51:57.862Z,35.41
2019-05-07T10:54:32.079Z,35.79
2019-05-07T10:57:07.034Z,36.00
2019-05-07T10:59:42.207Z,35.95
2019-05-07T11:02:24.055Z,36.33
2019-05-07T11:04:57.702Z,36.21
2019-05-07T11:07:32.822Z,36.46
2019-05-07T11:10:08.202Z,36.56
2019-05-07T11:12:42.856Z,36.60
2019-05-07T11:15:16.665Z,36.42
2019-05-07T11:17:55.979Z,36.69
2019-05-07T11:20:31.909Z,36.40
2019-05-07T11:23:05.321Z,36.44
2019-05-07T11:25:38.993Z,36.83
2019-05-07T11:28:13.592Z,36.17
2019-05-07T11:30:47.344Z,35.37
2019-05-07T11:33:22.173Z,34.62
2019-05-07T11:35:56.154Z,35.05
2019-05-07T11:38:29.911Z,35.00
2019-05-07T11:41:04.844Z,35.93
2019-05-07T11:43:56.338Z,35.27
2019-05-07T11:46:55.033Z,34.83
2019-05-07T11:49:47.740Z,35.05
2019-05-07T11:52:35.791Z,35.19
2019-05-07T11:55:09.221Z,35.14
2019-05-07T11:57:44.408Z,35.19
2019-05-07T12:00:28.448Z,34.62
2019-05-07T12:03:02.418Z,34.54
2019-05-07T12:05:36.275Z,34.18
2019-05-07T12:08:10.572Z,34.27
2019-05-07T12:10:44.318Z,34.71
2019-05-07T12:13:18.058Z,34.83
2019-05-07T12:15:52.408Z,34.81
2019-05-07T12:18:26.212Z,34.94
2019-05-07T12:21:02.241Z,34.99
2019-05-07T12:23:35.365Z,34.95
2019-05-07T12:26:09.132Z,35.02
2019-05-07T12:28:43.224Z,35.03
2019-05-07T12:31:28.968Z,35.34
2019-05-07T12:34:16.060Z,35.42
2019-05-07T12:36:49.755Z,35.59
2019-05-07T12:39:24.487Z,35.53
2019-05-07T12:41:58.333Z,35.88
2019-05-07T12:44:32.133Z,35.98
2019-05-07T12:47:06.676Z,36.14
2019-05-07T12:49:42.734Z,36.12
2019-05-07T12:52:22.733Z,36.33
2019-05-07T12:55:07.612Z,36.23
2019-05-07T12:57:42.095Z,36.39
2019-05-07T13:00:33.392Z,35.96
2019-05-07T13:03:38.232Z,35.94
2019-05-07T13:06:13.994Z,36.14
2019-05-07T13:08:47.889Z,35.25
2019-05-07T13:11:22.254Z,35.52
2019-05-07T13:13:55.948Z,35.57
2019-05-07T13:16:29.812Z,35.69
2019-05-07T13:19:03.515Z,35.42
2019-05-07T13:21:47.431Z,35.46
2019-05-07T13:24:14.931Z,35.27
2019-05-07T13:26:49.259Z,35.49
2019-05-07T13:29:23.012Z,35.45
2019-05-07T13:31:56.774Z,35.36
2019-05-07T13:34:34.021Z,35.04
2019-05-07T13:37:12.993Z,35.19
2019-05-07T13:39:57.228Z,35.17
2019-05-07T13:42:48.371Z,35.12
2019-05-07T13:45:41.654Z,35.28
2019-05-07T13:48:19.555Z,35.14
2019-05-07T13:50:53.563Z,35.00
2019-05-07T13:53:27.272Z,34.89
2019-05-07T13:56:02.336Z,34.94
2019-05-07T13:58:36.459Z,34.97
2019-05-07T14:01:27.303Z,34.89
2019-05-07T14:04:03.841Z,34.84
2019-05-07T14:06:39.955Z,34.82
2019-05-07T14:09:18.172Z,34.53
2019-05-07T14:11:52.683Z,34.62
2019-05-07T14:14:27.203Z,34.58
2019-05-07T14:17:02.337Z,34.59
2019-05-07T14:19:37.052Z,34.41
2019-05-07T14:22:16.299Z,34.32
2019-05-07T14:24:46.798Z,34.31
2019-05-07T14:27:20.826Z,34.24
2019-05-07T14:29:54.725Z,34.16
2019-05-07T14:32:42.120Z,34.15
2019-05-07T14:35:23.252Z,34.10
2019-05-07T14:38:13.709Z,34.06
2019-05-07T14:40:46.990Z,33.93
2019-05-07T14:43:44.675Z,33.60
2019-05-07T14:46:19.841Z,33.67
2019-05-07T14:48:56.002Z,33.80
2019-05-07T14:51:32.601Z,33.62
2019-05-07T14:54:08.174Z,33.68
2019-05-07T14:56:43.434Z,33.68
2019-05-07T14:59:19.041Z,33.72
2019-05-07T15:01:52.762Z,33.80
2019-05-07T15:04:26.383Z,33.79
2019-05-07T15:07:02.409Z,33.76
2019-05-07T15:09:35.689Z,33.73
2019-05-07T15:12:11.540Z,33.71
2019-05-07T15:14:44.816Z,33.66
2019-05-07T15:17:27.966Z,33.71
2019-05-07T15:20:02.845Z,33.63
2019-05-07T15:22:49.679Z,33.38
2019-05-07T15:25:22.684Z,33.55
2019-05-07T15:27:56.543Z,33.60
2019-05-07T15:30:37.672Z,33.70
2019-05-07T15:33:12.746Z,33.72
2019-05-07T15:35:46.734Z,33.72
2019-05-07T15:38:21.717Z,33.79
2019-05-07T15:40:55.562Z,33.81
2019-05-07T15:43:29.446Z,33.75
2019-05-07T15:46:03.207Z,33.70
2019-05-07T15:48:37.753Z,33.76
2019-05-07T15:51:11.965Z,33.73
2019-05-07T15:53:54.506Z,33.78
2019-05-07T15:56:28.257Z,33.69
2019-05-07T15:59:02.287Z,33.78
2019-05-07T16:01:36.312Z,34.33
2019-05-07T16:04:21.589Z,34.09
2019-05-07T16:06:45.650Z,34.22
2019-05-07T16:09:19.243Z,34.30
2019-05-07T16:11:53.277Z,34.25
2019-05-07T16:14:27.264Z,34.28
2019-05-07T16:17:07.915Z,34.27
2019-05-07T16:19:42.611Z,34.33
2019-05-07T16:22:23.516Z,34.20
2019-05-07T16:24:57.350Z,34.23
2019-05-07T16:27:31.749Z,34.18
2019-05-07T16:30:06.046Z,34.13
2019-05-07T16:32:42.208Z,34.08
2019-05-07T16:35:16.270Z,34.01
2019-05-07T16:37:52.062Z,33.97
2019-05-07T16:40:25.739Z,33.86
2019-05-07T16:42:59.534Z,33.77
2019-05-07T16:45:33.170Z,33.68
2019-05-07T16:48:06.823Z,33.63
2019-05-07T16:50:40.659Z,33.53
2019-05-07T16:53:26.585Z,33.51
2019-05-07T16:55:49.864Z,33.46
2019-05-07T16:58:34.531Z,33.37
2019-05-07T17:01:08.223Z,33.39
2019-05-07T17:03:46.761Z,33.47
2019-05-07T17:06:22.450Z,33.43
2019-05-07T17:09:08.138Z,33.51
2019-05-07T17:11:43.696Z,33.61
2019-05-07T17:14:17.744Z,33.91
2019-05-07T17:16:51.728Z,33.95
2019-05-07T17:19:25.612Z,34.00
2019-05-07T17:21:59.362Z,34.14
2019-05-07T17:24:33.121Z,34.12
2019-05-07T17:27:07.610Z,34.38
2019-05-07T17:29:42.946Z,34.18
2019-05-07T17:32:16.839Z,34.19
2019-05-07T17:34:52.897Z,34.38
2019-05-07T17:37:27.192Z,34.57
2019-05-07T17:40:03.062Z,34.49
2019-05-07T17:42:36.579Z,34.47
2019-05-07T17:45:12.286Z,34.36
2019-05-07T17:47:46.241Z,34.34
2019-05-07T17:50:23.909Z,34.30
2019-05-07T17:52:58.994Z,34.23
2019-05-07T17:55:33.284Z,34.16
2019-05-07T17:58:07.939Z,34.11
2019-05-07T18:00:43.215Z,34.08
2019-05-07T18:03:38.802Z,34.07
2019-05-07T18:06:12.893Z,34.12
2019-05-07T18:08:46.878Z,34.15
2019-05-07T18:11:24.044Z,34.08
2019-05-07T18:13:56.081Z,34.02
2019-05-07T18:16:39.079Z,33.99
2019-05-07T18:19:12.896Z,33.97
2019-05-07T18:21:46.875Z,34.15
2019-05-07T18:24:22.372Z,34.00
2019-05-07T18:26:56.276Z,33.94
2019-05-07T18:29:32.402Z,33.94
2019-05-07T18:32:06.415Z,33.91
2019-05-07T18:34:40.142Z,33.87
2019-05-07T18:37:14.074Z,33.86
2019-05-07T18:39:47.955Z,33.85
2019-05-07T18:42:22.270Z,33.61
2019-05-07T18:44:56.380Z,33.82
2019-05-07T18:47:30.100Z,33.86
2019-05-07T18:50:04.101Z,33.85
2019-05-07T18:52:37.879Z,33.88
2019-05-07T18:55:12.090Z,33.88
2019-05-07T18:57:45.799Z,33.87
2019-05-07T19:00:25.665Z,33.93
2019-05-07T19:03:00.318Z,33.90
2019-05-07T19:05:34.083Z,33.93
2019-05-07T19:08:08.805Z,33.97
2019-05-07T19:10:43.047Z,34.00
2019-05-07T19:13:16.861Z,34.02
2019-05-07T19:15:52.688Z,34.04
2019-05-07T19:18:26.091Z,34.03
2019-05-07T19:21:00.026Z,34.06
2019-05-07T19:23:33.656Z,34.06
2019-05-07T19:26:07.396Z,34.06
2019-05-07T19:28:42.674Z,34.41
2019-05-07T19:31:16.543Z,34.24
2019-05-07T19:33:52.389Z,34.29
2019-05-07T19:36:25.992Z,34.27
2019-05-07T19:39:01.821Z,34.24
2019-05-07T19:41:35.106Z,34.20
2019-05-07T19:44:09.110Z,34.15
2019-05-07T19:46:42.926Z,34.09
2019-05-07T19:49:16.618Z,34.18
2019-05-07T19:51:52.374Z,34.14
2019-05-07T19:54:26.006Z,34.20
2019-05-07T19:56:59.748Z,34.17
2019-05-07T19:59:33.492Z,34.20
2019-05-07T20:02:09.658Z,34.19
2019-05-07T20:04:43.515Z,34.14
2019-05-07T20:07:17.361Z,34.13
2019-05-07T20:09:52.436Z,34.14
2019-05-07T20:12:26.655Z,34.20
2019-05-07T20:15:02.708Z,34.28
2019-05-07T20:17:36.867Z,34.97
2019-05-07T20:20:12.550Z,35.42
2019-05-07T20:22:46.112Z,35.51
2019-05-07T20:25:22.285Z,35.74
2019-05-07T20:27:56.215Z,35.80
2019-05-07T20:30:32.280Z,35.72
2019-05-07T20:33:05.487Z,35.50
2019-05-07T20:35:41.339Z,35.64
2019-05-07T20:38:15.865Z,35.64
2019-05-07T20:40:52.027Z,35.62
2019-05-07T20:43:25.157Z,35.63
2019-05-07T20:45:58.911Z,35.56
2019-05-07T20:48:32.744Z,35.58
2019-05-07T20:51:06.680Z,35.36
2019-05-07T20:54:01.884Z,35.33
2019-05-07T20:56:37.209Z,35.36
2019-05-07T20:59:12.507Z,35.37
2019-05-07T21:01:46.394Z,35.47
2019-05-07T21:04:22.193Z,35.51
2019-05-07T21:06:55.676Z,35.57
2019-05-07T21:09:29.451Z,35.57
2019-05-07T21:12:03.345Z,35.57
2019-05-07T21:14:37.267Z,35.59
2019-05-07T21:17:11.995Z,35.57
2019-05-07T21:19:46.036Z,35.61
2019-05-07T21:22:22.720Z,35.57
2019-05-07T21:24:56.774Z,35.56
2019-05-07T21:27:32.125Z,35.59
2019-05-07T21:30:05.854Z,35.55
2019-05-07T21:32:39.569Z,35.51
2019-05-07T21:35:13.551Z,35.51
2019-05-07T21:37:47.214Z,35.50
2019-05-07T21:40:22.435Z,35.46
2019-05-07T21:42:56.408Z,35.43
2019-05-07T21:45:32.316Z,35.42
2019-05-07T21:48:05.974Z,35.40
2019-05-07T21:50:39.671Z,35.41
2019-05-07T21:53:25.832Z,35.41
2019-05-07T21:56:16.865Z,35.37
2019-05-07T21:59:00.341Z,35.37
2019-05-07T22:01:38.858Z,35.33
2019-05-07T22:04:12.765Z,35.28
2019-05-07T22:06:46.735Z,35.31
2019-05-07T22:09:22.355Z,35.26
2019-05-07T22:11:56.525Z,35.25
2019-05-07T22:14:30.185Z,35.24
2019-05-07T22:17:04.180Z,35.23
2019-05-07T22:19:37.966Z,35.22
2019-05-07T22:22:12.437Z,35.17
2019-05-07T22:24:49.357Z,35.19
2019-05-07T22:27:22.235Z,35.10
2019-05-07T22:29:56.096Z,35.13
2019-05-07T22:32:46.244Z,35.16
2019-05-07T22:35:22.986Z,35.15
2019-05-07T22:37:56.851Z,35.12
2019-05-07T22:40:32.140Z,35.09
2019-05-07T22:43:05.947Z,35.06
2019-05-07T22:45:39.719Z,35.08
2019-05-07T22:48:13.727Z,35.03
2019-05-07T22:50:47.962Z,34.98
2019-05-07T22:53:22.466Z,34.95
2019-05-07T22:55:56.310Z,35.00
2019-05-07T22:58:34.850Z,35.03
2019-05-07T23:01:10.329Z,35.30
2019-05-07T23:03:44.154Z,35.40
2019-05-07T23:06:17.974Z,35.36
2019-05-07T23:08:53.002Z,35.40
2019-05-07T23:11:27.004Z,35.36
2019-05-07T23:14:02.576Z,35.36
2019-05-07T23:16:36.260Z,35.38
2019-05-07T23:19:13.904Z,35.39
2019-05-07T23:21:45.461Z,35.35
2019-05-07T23:24:22.555Z,35.32
2019-05-07T23:26:56.104Z,35.34
2019-05-07T23:29:29.916Z,35.30
2019-05-07T23:32:03.754Z,35.29
2019-05-07T23:34:37.488Z,35.29
2019-05-07T23:37:11.759Z,35.27
2019-05-07T23:39:47.341Z,35.27
2019-05-07T23:42:25.006Z,35.25
2019-05-07T23:44:58.730Z,35.25
2019-05-07T23:47:32.920Z,35.23
2019-05-07T23:50:06.902Z,35.26
2019-05-07T23:52:43.978Z,35.23
2019-05-07T23:55:16.167Z,35.21
2019-05-07T23:57:49.912Z,35.21
